^^
Paulen-Weather Station Historical Data
Daily Summary for July 15, 2022 Units:  Metric    English   Both
Daily Weekly Monthly Yearly Custom
  High: Low: Average:
Temperature: 14 °C 13 °C 13.4 °C
Dew Point: 7 °C 7 °C 7 °C
Humidity: 68% 63% 65%
Wind Speed: 28km/h 22km/h 24.5km/h
Wind Gust: 24km/h - -
Wind- - NW
Pressure: 1012.19 hPa 1011.65 hPa -
Precipitation: 0 mm    
Historical Graphs
 
 
Tabular Data for July 15, 2022
Time Temperature Dew Point Pressure Wind Wind Speed Wind Gust Humidity Rainfall Rate (Hourly) solar
00:04 14 °C 7 °C 1011.65 hPa NW 23 km/h 20 km/h 63% 0 mm 0 W/m2
00:09 14 °C 7 °C 1011.68 hPa NW 24 km/h 21 km/h 63% 0 mm 0 W/m2
00:14 14 °C 7 °C 1011.72 hPa NW 24 km/h 21 km/h 63% 0 mm 0 W/m2
00:19 14 °C 7 °C 1011.75 hPa NW 23 km/h 20 km/h 63% 0 mm 0 W/m2
00:24 14 °C 7 °C 1011.82 hPa NW 22 km/h 20 km/h 63% 0 mm 0 W/m2
00:29 14 °C 7 °C 1011.79 hPa NW 27 km/h 22 km/h 63% 0 mm 0 W/m2
00:34 14 °C 7 °C 1011.85 hPa NW 25 km/h 21 km/h 63% 0 mm 0 W/m2
00:39 14 °C 7 °C 1011.89 hPa NW 27 km/h 21 km/h 64% 0 mm 0 W/m2
00:44 14 °C 7 °C 1011.85 hPa NW 28 km/h 24 km/h 64% 0 mm 0 W/m2
00:49 13 °C 7 °C 1011.89 hPa NW 23 km/h 19 km/h 64% 0 mm 0 W/m2
00:54 13 °C 7 °C 1011.95 hPa NW 23 km/h 19 km/h 64% 0 mm 0 W/m2
00:59 13 °C 7 °C 1011.95 hPa NW 24 km/h 21 km/h 64% 0 mm 0 W/m2
01:04 13 °C 7 °C 1011.99 hPa NW 24 km/h 23 km/h 64% 0 mm 0 W/m2
01:09 13 °C 7 °C 1011.92 hPa NW 26 km/h 23 km/h 64% 0 mm 0 W/m2
01:14 13 °C 7 °C 1011.95 hPa NW 25 km/h 19 km/h 65% 0 mm 0 W/m2
01:19 13 °C 7 °C 1012.06 hPa NW 25 km/h 21 km/h 66% 0 mm 0 W/m2
01:24 13 °C 7 °C 1012.12 hPa NW 23 km/h 21 km/h 66% 0 mm 0 W/m2
01:29 13 °C 7 °C 1012.09 hPa NW 24 km/h 22 km/h 66% 0 mm 0 W/m2
01:34 13 °C 7 °C 1012.12 hPa NW 23 km/h 21 km/h 67% 0 mm 0 W/m2
01:39 13 °C 7 °C 1012.16 hPa NW 24 km/h 20 km/h 66% 0 mm 0 W/m2
01:44 13 °C 7 °C 1012.19 hPa NW 25 km/h 19 km/h 67% 0 mm 0 W/m2
01:49 13 °C 7 °C 1012.19 hPa NW 23 km/h 22 km/h 68% 0 mm 0 W/m2
01:54 13 °C 7 °C 1012.12 hPa NW 28 km/h 24 km/h 67% 0 mm 0 W/m2
Compliments of Weather Underground - 2 mb